sensor_id;sensor_type;location;lat;lon;timestamp;pressure;altitude;pressure_sealevel;temperature;humidity
66762;BME280;53672;48.176;16.338;2024-01-10T00:04:26;100826.94;;;-7.35;68.51
66762;BME280;53672;48.176;16.338;2024-01-10T00:09:28;100818.13;;;-7.37;69.35
66762;BME280;53672;48.176;16.338;2024-01-10T00:14:31;100817.63;;;-7.52;68.71
66762;BME280;53672;48.176;16.338;2024-01-10T00:19:32;100820.47;;;-7.59;68.68
66762;BME280;53672;48.176;16.338;2024-01-10T00:24:34;100809.81;;;-7.59;68.77
66762;BME280;53672;48.176;16.338;2024-01-10T00:29:37;100810.13;;;-7.71;68.49
66762;BME280;53672;48.176;16.338;2024-01-10T00:34:38;100820.97;;;-7.77;68.44
66762;BME280;53672;48.176;16.338;2024-01-10T00:39:40;100815.75;;;-7.82;68.72
66762;BME280;53672;48.176;16.338;2024-01-10T00:44:43;100810.31;;;-7.77;68.92
66762;BME280;53672;48.176;16.338;2024-01-10T00:49:44;100815.81;;;-7.83;68.99
66762;BME280;53672;48.176;16.338;2024-01-10T00:54:47;100816.47;;;-7.75;69.30
66762;BME280;53672;48.176;16.338;2024-01-10T00:59:54;100816.78;;;-7.87;67.56
66762;BME280;53672;48.176;16.338;2024-01-10T01:04:57;100818.41;;;-7.82;68.45
66762;BME280;53672;48.176;16.338;2024-01-10T01:10:03;100819.50;;;-7.89;68.08
66762;BME280;53672;48.176;16.338;2024-01-10T01:15:08;100822.16;;;-7.89;66.94
66762;BME280;53672;48.176;16.338;2024-01-10T01:20:11;100815.03;;;-7.88;67.25
66762;BME280;53672;48.176;16.338;2024-01-10T01:25:13;100825.75;;;-7.90;67.81
66762;BME280;53672;48.176;16.338;2024-01-10T01:30:16;100826.75;;;-7.95;68.53
66762;BME280;53672;48.176;16.338;2024-01-10T01:35:19;100820.50;;;-7.93;67.87
66762;BME280;53672;48.176;16.338;2024-01-10T01:40:23;100822.31;;;-7.95;68.12
66762;BME280;53672;48.176;16.338;2024-01-10T01:45:27;100819.56;;;-7.92;67.52
66762;BME280;53672;48.176;16.338;2024-01-10T01:50:30;100818.94;;;-8.01;68.69
66762;BME280;53672;48.176;16.338;2024-01-10T01:55:33;100818.13;;;-8.05;68.29
66762;BME280;53672;48.176;16.338;2024-01-10T02:00:37;100809.25;;;-8.05;68.91
66762;BME280;53672;48.176;16.338;2024-01-10T02:05:39;100811.91;;;-8.04;68.10
66762;BME280;53672;48.176;16.338;2024-01-10T02:10:41;100813.97;;;-8.15;68.66
66762;BME280;53672;48.176;16.338;2024-01-10T02:15:44;100807.75;;;-8.17;70.66
66762;BME280;53672;48.176;16.338;2024-01-10T02:20:46;100807.88;;;-8.20;69.19
66762;BME280;53672;48.176;16.338;2024-01-10T02:25:49;100810.59;;;-8.23;69.61
66762;BME280;53672;48.176;16.338;2024-01-10T02:30:52;100808.09;;;-8.29;69.91
66762;BME280;53672;48.176;16.338;2024-01-10T02:35:54;100805.56;;;-8.35;70.18
66762;BME280;53672;48.176;16.338;2024-01-10T02:40:57;100815.47;;;-8.42;70.88
66762;BME280;53672;48.176;16.338;2024-01-10T02:45:58;100812.72;;;-8.37;70.58
66762;BME280;53672;48.176;16.338;2024-01-10T02:51:00;100806.50;;;-8.38;70.49
66762;BME280;53672;48.176;16.338;2024-01-10T02:56:03;100811.09;;;-8.44;69.82
66762;BME280;53672;48.176;16.338;2024-01-10T03:01:05;100809.53;;;-8.53;70.07
66762;BME280;53672;48.176;16.338;2024-01-10T03:06:07;100809.69;;;-8.60;70.00
66762;BME280;53672;48.176;16.338;2024-01-10T03:11:10;100800.94;;;-8.65;70.62
66762;BME280;53672;48.176;16.338;2024-01-10T03:16:11;100805.19;;;-8.57;69.55
66762;BME280;53672;48.176;16.338;2024-01-10T03:21:13;100807.88;;;-8.57;69.74
66762;BME280;53672;48.176;16.338;2024-01-10T03:26:16;100807.97;;;-8.61;69.77
66762;BME280;53672;48.176;16.338;2024-01-10T03:31:18;100803.59;;;-8.64;70.34
66762;BME280;53672;48.176;16.338;2024-01-10T03:36:19;100804.59;;;-8.69;69.85
66762;BME280;53672;48.176;16.338;2024-01-10T03:41:22;100807.41;;;-8.75;70.74
66762;BME280;53672;48.176;16.338;2024-01-10T03:46:24;100801.16;;;-8.74;70.38
66762;BME280;53672;48.176;16.338;2024-01-10T03:51:25;100800.16;;;-8.69;70.49
66762;BME280;53672;48.176;16.338;2024-01-10T03:56:28;100793.94;;;-8.69;69.99
66762;BME280;53672;48.176;16.338;2024-01-10T04:01:30;100794.97;;;-8.75;70.56
66762;BME280;53672;48.176;16.338;2024-01-10T04:06:31;100794.97;;;-8.75;71.25
66762;BME280;53672;48.176;16.338;2024-01-10T04:11:36;100799.56;;;-8.81;72.48
66762;BME280;53672;48.176;16.338;2024-01-10T04:16:37;100796.19;;;-8.90;72.41
66762;BME280;53672;48.176;16.338;2024-01-10T04:21:39;100799.78;;;-8.92;72.05
66762;BME280;53672;48.176;16.338;2024-01-10T04:26:42;100796.34;;;-8.96;73.11
66762;BME280;53672;48.176;16.338;2024-01-10T04:31:43;100794.63;;;-9.00;72.53
66762;BME280;53672;48.176;16.338;2024-01-10T04:36:45;100790.28;;;-9.02;73.18
66762;BME280;53672;48.176;16.338;2024-01-10T04:41:48;100792.06;;;-9.04;73.10
66762;BME280;53672;48.176;16.338;2024-01-10T04:46:50;100789.59;;;-9.12;73.55
66762;BME280;53672;48.176;16.338;2024-01-10T04:51:51;100785.06;;;-9.08;73.58
66762;BME280;53672;48.176;16.338;2024-01-10T04:56:55;100788.75;;;-9.14;74.77
66762;BME280;53672;48.176;16.338;2024-01-10T05:01:56;100791.31;;;-9.11;73.89
66762;BME280;53672;48.176;16.338;2024-01-10T05:06:58;100788.81;;;-9.17;73.65
66762;BME280;53672;48.176;16.338;2024-01-10T05:12:01;100787.13;;;-9.22;72.96
66762;BME280;53672;48.176;16.338;2024-01-10T05:17:03;100785.22;;;-9.16;74.01
66762;BME280;53672;48.176;16.338;2024-01-10T05:22:04;100789.84;;;-9.24;73.71
66762;BME280;53672;48.176;16.338;2024-01-10T05:27:08;100786.31;;;-9.24;73.52
66762;BME280;53672;48.176;16.338;2024-01-10T05:32:09;100785.50;;;-9.26;73.59
66762;BME280;53672;48.176;16.338;2024-01-10T05:37:11;100773.84;;;-9.21;74.18
66762;BME280;53672;48.176;16.338;2024-01-10T05:42:14;100783.50;;;-9.17;74.74
66762;BME280;53672;48.176;16.338;2024-01-10T05:47:15;100782.50;;;-9.13;75.36
66762;BME280;53672;48.176;16.338;2024-01-10T05:52:17;100779.06;;;-9.16;75.40
66762;BME280;53672;48.176;16.338;2024-01-10T05:57:20;100785.97;;;-9.08;74.75
66762;BME280;53672;48.176;16.338;2024-01-10T06:02:23;100781.22;;;-8.95;74.92
66762;BME280;53672;48.176;16.338;2024-01-10T06:07:25;100776.78;;;-8.95;74.35
66762;BME280;53672;48.176;16.338;2024-01-10T06:12:28;100775.78;;;-8.89;74.95
66762;BME280;53672;48.176;16.338;2024-01-10T06:17:30;100785.34;;;-8.80;75.67
66762;BME280;53672;48.176;16.338;2024-01-10T06:22:31;100787.84;;;-8.73;76.84
66762;BME280;53672;48.176;16.338;2024-01-10T06:27:34;100787.63;;;-8.64;76.80
66762;BME280;53672;48.176;16.338;2024-01-10T06:32:36;100780.19;;;-8.50;76.31
66762;BME280;53672;48.176;16.338;2024-01-10T06:37:38;100788.75;;;-8.37;76.34
66762;BME280;53672;48.176;16.338;2024-01-10T06:42:41;100789.47;;;-8.29;75.23
66762;BME280;53672;48.176;16.338;2024-01-10T06:47:42;100789.13;;;-8.17;74.28
66762;BME280;53672;48.176;16.338;2024-01-10T06:52:44;100799.75;;;-8.15;74.58
66762;BME280;53672;48.176;16.338;2024-01-10T06:57:47;100801.59;;;-8.19;74.17
66762;BME280;53672;48.176;16.338;2024-01-10T07:02:49;100799.78;;;-8.17;75.01
66762;BME280;53672;48.176;16.338;2024-01-10T07:07:50;100811.66;;;-7.95;73.97
66762;BME280;53672;48.176;16.338;2024-01-10T07:12:54;100800.41;;;-7.74;72.77
66762;BME280;53672;48.176;16.338;2024-01-10T07:17:55;100805.28;;;-7.56;71.57
66762;BME280;53672;48.176;16.338;2024-01-10T07:22:57;100817.59;;;-7.19;70.39
66762;BME280;53672;48.176;16.338;2024-01-10T07:28:00;100816.31;;;-7.06;69.58
66762;BME280;53672;48.176;16.338;2024-01-10T07:33:02;100822.06;;;-6.91;69.93
66762;BME280;53672;48.176;16.338;2024-01-10T07:38:04;100820.72;;;-6.76;69.58
66762;BME280;53672;48.176;16.338;2024-01-10T07:43:07;100824.22;;;-6.74;69.18
66762;BME280;53672;48.176;16.338;2024-01-10T07:48:08;100823.13;;;-6.67;68.54
66762;BME280;53672;48.176;16.338;2024-01-10T07:53:11;100827.59;;;-6.40;67.98
66762;BME280;53672;48.176;16.338;2024-01-10T07:58:14;100826.41;;;-6.30;69.47
66762;BME280;53672;48.176;16.338;2024-01-10T08:03:17;100829.66;;;-5.94;65.38
66762;BME280;53672;48.176;16.338;2024-01-10T08:08:18;100836.56;;;-5.61;64.27
66762;BME280;53672;48.176;16.338;2024-01-10T08:13:21;100831.81;;;-5.28;63.55
66762;BME280;53672;48.176;16.338;2024-01-10T08:18:23;100819.66;;;-4.89;61.13
66762;BME280;53672;48.176;16.338;2024-01-10T08:23:24;100835.47;;;-4.60;59.33
66762;BME280;53672;48.176;16.338;2024-01-10T08:28:27;100828.81;;;-3.61;60.39
66762;BME280;53672;48.176;16.338;2024-01-10T08:33:29;100832.38;;;-2.24;51.96
66762;BME280;53672;48.176;16.338;2024-01-10T08:38:31;100828.03;;;-1.38;49.55
66762;BME280;53672;48.176;16.338;2024-01-10T08:43:34;100823.75;;;0.35;44.97
66762;BME280;53672;48.176;16.338;2024-01-10T08:48:36;100830.03;;;0.20;46.04
66762;BME280;53672;48.176;16.338;2024-01-10T08:53:38;100824.28;;;2.53;39.04
66762;BME280;53672;48.176;16.338;2024-01-10T08:58:41;100825.78;;;2.18;38.21
66762;BME280;53672;48.176;16.338;2024-01-10T09:03:43;100825.72;;;2.98;37.54
66762;BME280;53672;48.176;16.338;2024-01-10T09:08:45;100825.69;;;4.23;35.34
66762;BME280;53672;48.176;16.338;2024-01-10T09:13:48;100823.06;;;5.62;33.67
66762;BME280;53672;48.176;16.338;2024-01-10T09:18:50;100829.00;;;5.67;32.35
66762;BME280;53672;48.176;16.338;2024-01-10T09:23:54;100821.56;;;6.02;31.13
66762;BME280;53672;48.176;16.338;2024-01-10T09:28:57;100824.16;;;5.48;33.03
66762;BME280;53672;48.176;16.338;2024-01-10T09:33:59;100817.84;;;6.14;31.37
66762;BME280;53672;48.176;16.338;2024-01-10T09:39:00;100813.03;;;8.14;28.93
66762;BME280;53672;48.176;16.338;2024-01-10T09:44:04;100810.44;;;5.94;30.13
66762;BME280;53672;48.176;16.338;2024-01-10T09:49:06;100789.28;;;8.74;27.12
66762;BME280;53672;48.176;16.338;2024-01-10T09:54:07;100787.44;;;8.15;29.40
66762;BME280;53672;48.176;16.338;2024-01-10T09:59:11;100777.94;;;8.19;27.22
66762;BME280;53672;48.176;16.338;2024-01-10T10:04:13;100776.81;;;8.32;28.74
66762;BME280;53672;48.176;16.338;2024-01-10T10:09:17;100778.78;;;10.00;26.15
66762;BME280;53672;48.176;16.338;2024-01-10T10:14:20;100781.34;;;9.28;26.79
66762;BME280;53672;48.176;16.338;2024-01-10T10:19:23;100767.97;;;7.69;30.96
66762;BME280;53672;48.176;16.338;2024-01-10T10:24:24;100768.38;;;8.92;28.90
66762;BME280;53672;48.176;16.338;2024-01-10T10:29:28;100765.72;;;9.85;28.11
66762;BME280;53672;48.176;16.338;2024-01-10T10:34:31;100747.16;;;11.47;24.15
66762;BME280;53672;48.176;16.338;2024-01-10T10:39:32;100740.88;;;13.52;23.16
66762;BME280;53672;48.176;16.338;2024-01-10T10:44:36;100751.22;;;9.28;30.98
66762;BME280;53672;48.176;16.338;2024-01-10T10:49:47;100736.97;;;12.24;25.07
66762;BME280;53672;48.176;16.338;2024-01-10T10:54:53;100726.41;;;12.86;23.74
66762;BME280;53672;48.176;16.338;2024-01-10T10:59:59;100712.94;;;11.16;27.15
66762;BME280;53672;48.176;16.338;2024-01-10T11:05:02;100709.19;;;13.00;24.36
66762;BME280;53672;48.176;16.338;2024-01-10T11:10:08;100701.31;;;12.23;26.08
66762;BME280;53672;48.176;16.338;2024-01-10T11:15:21;100687.31;;;11.33;25.51
66762;BME280;53672;48.176;16.338;2024-01-10T11:20:37;100679.63;;;10.40;33.26
66762;BME280;53672;48.176;16.338;2024-01-10T11:25:44;100666.88;;;13.64;23.17
66762;BME280;53672;48.176;16.338;2024-01-10T11:30:51;100657.81;;;12.34;26.77
66762;BME280;53672;48.176;16.338;2024-01-10T11:36:07;100647.31;;;12.30;26.26
66762;BME280;53672;48.176;16.338;2024-01-10T11:41:15;100642.88;;;12.45;27.80
66762;BME280;53672;48.176;16.338;2024-01-10T11:46:22;100643.22;;;12.90;24.29
66762;BME280;53672;48.176;16.338;2024-01-10T11:51:24;100639.44;;;12.51;25.15
66762;BME280;53672;48.176;16.338;2024-01-10T11:56:37;100631.53;;;8.54;31.98
66762;BME280;53672;48.176;16.338;2024-01-10T12:01:41;100623.75;;;7.33;34.43
66762;BME280;53672;48.176;16.338;2024-01-10T12:06:45;100625.28;;;5.16;42.82
66762;BME280;53672;48.176;16.338;2024-01-10T12:11:47;100623.22;;;5.63;39.16
66762;BME280;53672;48.176;16.338;2024-01-10T12:16:50;100614.38;;;3.91;44.38
66762;BME280;53672;48.176;16.338;2024-01-10T12:21:52;100614.81;;;3.38;44.83
66762;BME280;53672;48.176;16.338;2024-01-10T12:26:55;100609.88;;;2.20;49.92
66762;BME280;53672;48.176;16.338;2024-01-10T12:31:59;100616.66;;;2.13;49.15
66762;BME280;53672;48.176;16.338;2024-01-10T12:37:01;100605.91;;;1.99;49.72
66762;BME280;53672;48.176;16.338;2024-01-10T12:42:03;100598.81;;;1.71;51.89
66762;BME280;53672;48.176;16.338;2024-01-10T12:47:06;100607.00;;;1.17;52.40
66762;BME280;53672;48.176;16.338;2024-01-10T12:52:07;100602.63;;;1.01;53.09
66762;BME280;53672;48.176;16.338;2024-01-10T12:57:09;100589.03;;;0.75;54.25
66762;BME280;53672;48.176;16.338;2024-01-10T13:02:12;100600.31;;;0.39;56.10
66762;BME280;53672;48.176;16.338;2024-01-10T13:07:14;100589.88;;;0.19;56.03
66762;BME280;53672;48.176;16.338;2024-01-10T13:12:16;100593.94;;;0.40;55.71
66762;BME280;53672;48.176;16.338;2024-01-10T13:17:19;100591.25;;;0.26;57.66
66762;BME280;53672;48.176;16.338;2024-01-10T13:22:21;100600.75;;;0.17;57.64
66762;BME280;53672;48.176;16.338;2024-01-10T13:27:22;100597.75;;;0.08;57.21
66762;BME280;53672;48.176;16.338;2024-01-10T13:32:25;100592.53;;;0.49;59.49
66762;BME280;53672;48.176;16.338;2024-01-10T13:37:28;100601.47;;;0.63;55.73
66762;BME280;53672;48.176;16.338;2024-01-10T13:42:29;100586.25;;;0.48;57.42
66762;BME280;53672;48.176;16.338;2024-01-10T13:47:32;100587.97;;;0.49;57.24
66762;BME280;53672;48.176;16.338;2024-01-10T13:52:34;100592.88;;;0.42;57.16
66762;BME280;53672;48.176;16.338;2024-01-10T13:57:36;100600.91;;;0.30;60.40
66762;BME280;53672;48.176;16.338;2024-01-10T14:02:39;100601.25;;;0.10;58.34
66762;BME280;53672;48.176;16.338;2024-01-10T14:07:41;100575.22;;;0.23;59.42
66762;BME280;53672;48.176;16.338;2024-01-10T14:12:44;100585.84;;;0.26;58.34
66762;BME280;53672;48.176;16.338;2024-01-10T14:17:47;100586.78;;;0.11;59.95
66762;BME280;53672;48.176;16.338;2024-01-10T14:22:49;100587.50;;;-0.01;59.22
66762;BME280;53672;48.176;16.338;2024-01-10T14:27:51;100589.81;;;-0.09;59.86
66762;BME280;53672;48.176;16.338;2024-01-10T14:32:54;100579.22;;;-0.12;62.50
66762;BME280;53672;48.176;16.338;2024-01-10T14:37:56;100581.50;;;-0.20;61.72
66762;BME280;53672;48.176;16.338;2024-01-10T14:42:58;100582.06;;;-0.30;61.33
66762;BME280;53672;48.176;16.338;2024-01-10T14:48:01;100578.50;;;-0.30;61.03
66762;BME280;53672;48.176;16.338;2024-01-10T14:53:03;100577.78;;;-0.48;61.46
66762;BME280;53672;48.176;16.338;2024-01-10T14:58:05;100582.47;;;-0.51;61.93
66762;BME280;53672;48.176;16.338;2024-01-10T15:03:08;100579.53;;;-0.62;62.48
66762;BME280;53672;48.176;16.338;2024-01-10T15:08:10;100579.25;;;-0.58;62.22
66762;BME280;53672;48.176;16.338;2024-01-10T15:13:12;100588.16;;;-0.71;62.89
66762;BME280;53672;48.176;16.338;2024-01-10T15:18:16;100582.00;;;-0.89;65.72
66762;BME280;53672;48.176;16.338;2024-01-10T15:23:20;100578.53;;;-0.91;63.14
66762;BME280;53672;48.176;16.338;2024-01-10T15:28:21;100572.59;;;-0.98;62.57
66762;BME280;53672;48.176;16.338;2024-01-10T15:33:24;100579.31;;;-0.89;63.31
66762;BME280;53672;48.176;16.338;2024-01-10T15:38:26;100569.38;;;-1.04;63.39
66762;BME280;53672;48.176;16.338;2024-01-10T15:43:28;100569.13;;;-1.15;63.97
66762;BME280;53672;48.176;16.338;2024-01-10T15:48:32;100572.69;;;-1.15;64.08
66762;BME280;53672;48.176;16.338;2024-01-10T15:53:44;100564.16;;;-1.23;64.01
66762;BME280;53672;48.176;16.338;2024-01-10T15:58:46;100561.72;;;-1.27;64.74
66762;BME280;53672;48.176;16.338;2024-01-10T16:03:49;100555.75;;;-1.32;65.03
66762;BME280;53672;48.176;16.338;2024-01-10T16:08:50;100567.22;;;-1.44;66.67
66762;BME280;53672;48.176;16.338;2024-01-10T16:13:52;100560.41;;;-1.51;65.36
66762;BME280;53672;48.176;16.338;2024-01-10T16:18:55;100557.81;;;-1.53;67.25
66762;BME280;53672;48.176;16.338;2024-01-10T16:23:57;100558.22;;;-1.60;66.94
66762;BME280;53672;48.176;16.338;2024-01-10T16:28:58;100555.69;;;-1.63;66.38
66762;BME280;53672;48.176;16.338;2024-01-10T16:34:01;100563.97;;;-1.66;68.52
66762;BME280;53672;48.176;16.338;2024-01-10T16:39:03;100566.66;;;-1.66;66.81
66762;BME280;53672;48.176;16.338;2024-01-10T16:44:05;100573.91;;;-1.68;66.59
66762;BME280;53672;48.176;16.338;2024-01-10T16:49:08;100563.41;;;-1.73;66.17
66762;BME280;53672;48.176;16.338;2024-01-10T16:54:10;100560.81;;;-1.75;66.38
66762;BME280;53672;48.176;16.338;2024-01-10T16:59:11;100553.50;;;-1.73;66.48
66762;BME280;53672;48.176;16.338;2024-01-10T17:04:15;100550.19;;;-1.78;66.48
66762;BME280;53672;48.176;16.338;2024-01-10T17:09:17;100564.28;;;-1.73;65.93
66762;BME280;53672;48.176;16.338;2024-01-10T17:14:18;100558.91;;;-1.73;66.69
66762;BME280;53672;48.176;16.338;2024-01-10T17:19:21;100558.50;;;-1.82;66.34
66762;BME280;53672;48.176;16.338;2024-01-10T17:24:23;100557.81;;;-1.86;66.54
66762;BME280;53672;48.176;16.338;2024-01-10T17:29:25;100566.00;;;-1.87;66.31
66762;BME280;53672;48.176;16.338;2024-01-10T17:34:28;100560.75;;;-1.90;66.83
66762;BME280;53672;48.176;16.338;2024-01-10T17:39:31;100562.59;;;-1.91;65.04
66762;BME280;53672;48.176;16.338;2024-01-10T17:44:32;100555.13;;;-1.86;65.01
66762;BME280;53672;48.176;16.338;2024-01-10T17:49:39;100553.56;;;-1.90;65.52
66762;BME280;53672;48.176;16.338;2024-01-10T17:54:41;100553.88;;;-1.96;65.42
66762;BME280;53672;48.176;16.338;2024-01-10T17:59:44;100543.63;;;-2.05;66.57
66762;BME280;53672;48.176;16.338;2024-01-10T18:04:47;100546.69;;;-1.95;64.70
66762;BME280;53672;48.176;16.338;2024-01-10T18:09:49;100535.06;;;-1.96;64.37
66762;BME280;53672;48.176;16.338;2024-01-10T18:14:50;100536.81;;;-1.95;64.98
66762;BME280;53672;48.176;16.338;2024-01-10T18:19:53;100536.28;;;-2.01;64.96
66762;BME280;53672;48.176;16.338;2024-01-10T18:24:55;100544.34;;;-2.01;65.26
66762;BME280;53672;48.176;16.338;2024-01-10T18:29:57;100535.53;;;-2.05;65.24
66762;BME280;53672;48.176;16.338;2024-01-10T18:35:00;100542.97;;;-2.10;65.90
66762;BME280;53672;48.176;16.338;2024-01-10T18:40:01;100545.22;;;-2.18;65.96
66762;BME280;53672;48.176;16.338;2024-01-10T18:45:04;100543.41;;;-2.17;66.57
66762;BME280;53672;48.176;16.338;2024-01-10T18:50:08;100535.03;;;-2.28;66.58
66762;BME280;53672;48.176;16.338;2024-01-10T18:55:09;100528.78;;;-2.29;66.56
66762;BME280;53672;48.176;16.338;2024-01-10T19:00:11;100536.56;;;-2.40;66.74
66762;BME280;53672;48.176;16.338;2024-01-10T19:05:16;100537.97;;;-2.33;66.57
66762;BME280;53672;48.176;16.338;2024-01-10T19:10:18;100523.91;;;-2.38;66.32
66762;BME280;53672;48.176;16.338;2024-01-10T19:15:19;100517.66;;;-2.38;67.31
66762;BME280;53672;48.176;16.338;2024-01-10T19:20:22;100529.72;;;-2.30;64.89
66762;BME280;53672;48.176;16.338;2024-01-10T19:25:24;100514.38;;;-2.28;65.55
66762;BME280;53672;48.176;16.338;2024-01-10T19:30:25;100523.72;;;-2.35;65.48
66762;BME280;53672;48.176;16.338;2024-01-10T19:35:30;100523.41;;;-2.29;66.70
66762;BME280;53672;48.176;16.338;2024-01-10T19:40:32;100523.41;;;-2.46;65.76
66762;BME280;53672;48.176;16.338;2024-01-10T19:45:35;100530.84;;;-2.51;66.82
66762;BME280;53672;48.176;16.338;2024-01-10T19:50:38;100527.94;;;-2.64;67.61
66762;BME280;53672;48.176;16.338;2024-01-10T19:55:40;100527.19;;;-2.67;67.66
66762;BME280;53672;48.176;16.338;2024-01-10T20:00:41;100527.75;;;-2.78;67.76
66762;BME280;53672;48.176;16.338;2024-01-10T20:05:45;100530.53;;;-2.79;68.41
66762;BME280;53672;48.176;16.338;2024-01-10T20:10:46;100527.66;;;-2.76;67.84
66762;BME280;53672;48.176;16.338;2024-01-10T20:15:49;100531.22;;;-2.76;68.30
66762;BME280;53672;48.176;16.338;2024-01-10T20:20:51;100521.97;;;-2.87;68.98
66762;BME280;53672;48.176;16.338;2024-01-10T20:25:53;100514.69;;;-3.02;70.27
66762;BME280;53672;48.176;16.338;2024-01-10T20:30:55;100510.03;;;-2.99;70.52
66762;BME280;53672;48.176;16.338;2024-01-10T20:36:01;100506.88;;;-3.07;71.13
66762;BME280;53672;48.176;16.338;2024-01-10T20:41:03;100510.00;;;-3.16;71.44
66762;BME280;53672;48.176;16.338;2024-01-10T20:46:04;100507.56;;;-3.21;71.72
66762;BME280;53672;48.176;16.338;2024-01-10T20:51:08;100506.25;;;-3.31;71.71
66762;BME280;53672;48.176;16.338;2024-01-10T20:56:09;100498.34;;;-3.34;71.69
66762;BME280;53672;48.176;16.338;2024-01-10T21:01:11;100491.69;;;-3.25;69.88
66762;BME280;53672;48.176;16.338;2024-01-10T21:06:14;100494.78;;;-3.16;67.89
66762;BME280;53672;48.176;16.338;2024-01-10T21:11:15;100488.41;;;-2.96;66.40
66762;BME280;53672;48.176;16.338;2024-01-10T21:16:17;100485.84;;;-2.99;66.47
66762;BME280;53672;48.176;16.338;2024-01-10T21:21:20;100484.84;;;-2.96;65.88
66762;BME280;53672;48.176;16.338;2024-01-10T21:26:21;100473.63;;;-3.04;64.77
66762;BME280;53672;48.176;16.338;2024-01-10T21:31:23;100478.69;;;-2.98;64.49
66762;BME280;53672;48.176;16.338;2024-01-10T21:36:26;100473.63;;;-3.04;66.02
66762;BME280;53672;48.176;16.338;2024-01-10T21:41:28;100469.47;;;-2.93;62.93
66762;BME280;53672;48.176;16.338;2024-01-10T21:46:29;100464.53;;;-2.85;61.92
66762;BME280;53672;48.176;16.338;2024-01-10T21:51:32;100460.75;;;-2.81;62.26
66762;BME280;53672;48.176;16.338;2024-01-10T21:56:34;100463.91;;;-2.90;62.53
66762;BME280;53672;48.176;16.338;2024-01-10T22:01:36;100455.47;;;-2.99;62.88
66762;BME280;53672;48.176;16.338;2024-01-10T22:06:38;100458.38;;;-3.04;63.32
66762;BME280;53672;48.176;16.338;2024-01-10T22:11:40;100455.53;;;-3.18;63.66
66762;BME280;53672;48.176;16.338;2024-01-10T22:16:42;100455.13;;;-3.28;64.18
66762;BME280;53672;48.176;16.338;2024-01-10T22:21:45;100465.66;;;-3.42;64.40
66762;BME280;53672;48.176;16.338;2024-01-10T22:26:47;100464.97;;;-3.28;64.21
66762;BME280;53672;48.176;16.338;2024-01-10T22:31:50;100460.66;;;-3.13;63.71
66762;BME280;53672;48.176;16.338;2024-01-10T22:36:53;100460.50;;;-3.28;65.01
66762;BME280;53672;48.176;16.338;2024-01-10T22:41:55;100459.38;;;-3.41;64.51
66762;BME280;53672;48.176;16.338;2024-01-10T22:46:57;100454.06;;;-3.42;64.75
66762;BME280;53672;48.176;16.338;2024-01-10T22:52:00;100450.56;;;-3.61;65.25
66762;BME280;53672;48.176;16.338;2024-01-10T22:57:02;100460.69;;;-3.68;65.86
66762;BME280;53672;48.176;16.338;2024-01-10T23:02:03;100463.81;;;-3.77;65.67
66762;BME280;53672;48.176;16.338;2024-01-10T23:07:06;100459.41;;;-3.78;65.50
66762;BME280;53672;48.176;16.338;2024-01-10T23:12:08;100456.16;;;-3.84;66.33
66762;BME280;53672;48.176;16.338;2024-01-10T23:17:10;100462.38;;;-4.03;67.93
66762;BME280;53672;48.176;16.338;2024-01-10T23:22:13;100465.63;;;-4.15;69.98
66762;BME280;53672;48.176;16.338;2024-01-10T23:27:14;100464.06;;;-4.20;72.03
66762;BME280;53672;48.176;16.338;2024-01-10T23:32:16;100461.56;;;-4.23;72.24
66762;BME280;53672;48.176;16.338;2024-01-10T23:37:19;100459.13;;;-4.29;72.69
66762;BME280;53672;48.176;16.338;2024-01-10T23:42:21;100459.31;;;-4.32;72.34
66762;BME280;53672;48.176;16.338;2024-01-10T23:47:22;100455.56;;;-4.48;72.87
66762;BME280;53672;48.176;16.338;2024-01-10T23:52:25;100462.78;;;-4.50;73.64
66762;BME280;53672;48.176;16.338;2024-01-10T23:57:27;100468.56;;;-4.60;73.27
